createdAt,value
2019-05-26T00:04:01.106Z,9.6
2019-05-26T00:09:01.107Z,9.4
2019-05-26T00:14:06.248Z,8.4
2019-05-26T00:19:01.121Z,8.2
2019-05-26T00:24:01.112Z,7.8
2019-05-26T00:29:01.104Z,8.2
2019-05-26T00:34:06.228Z,7.8
2019-05-26T00:39:01.105Z,8.2
2019-05-26T00:44:01.178Z,8.0
2019-05-26T00:49:01.197Z,8.5
2019-05-26T00:54:01.115Z,8.7
2019-05-26T00:59:01.122Z,9.2
2019-05-26T01:05:02.256Z,9.7
2019-05-26T01:10:01.106Z,10.3
2019-05-26T01:15:01.174Z,10.4
2019-05-26T01:20:01.105Z,11.2
2019-05-26T01:25:01.186Z,11.0
2019-05-26T01:30:01.115Z,10.7
2019-05-26T01:35:01.243Z,11.2
2019-05-26T01:40:01.100Z,10.8
2019-05-26T01:45:01.180Z,10.3
2019-05-26T01:50:06.118Z,9.6
2019-05-26T01:55:01.181Z,9.7
2019-05-26T02:00:01.129Z,9.1
2019-05-26T02:05:01.237Z,9.4
2019-05-26T02:10:01.107Z,8.5
2019-05-26T02:15:01.245Z,9.0
2019-05-26T02:20:01.108Z,9.5
2019-05-26T02:25:01.181Z,9.6
2019-05-26T02:30:06.123Z,10.2
2019-05-26T02:35:06.187Z,10.9
2019-05-26T02:40:01.152Z,11.8
2019-05-26T02:45:01.227Z,11.6
2019-05-26T02:50:06.110Z,12.1
2019-05-26T02:55:06.238Z,13.1
2019-05-26T03:00:01.117Z,12.8
2019-05-26T03:05:01.178Z,13.6
2019-05-26T03:10:01.106Z,13.7
2019-05-26T03:15:01.264Z,13.7
2019-05-26T03:20:01.118Z,13.8
2019-05-26T03:25:01.245Z,15.5
2019-05-26T03:30:01.119Z,15.7
2019-05-26T03:35:01.174Z,16.2
2019-05-26T03:40:01.160Z,16.8
2019-05-26T03:45:01.143Z,16.3
2019-05-26T03:50:01.086Z,15.2
2019-05-26T03:55:01.175Z,14.4
2019-05-26T04:00:01.115Z,13.8
2019-05-26T04:05:01.233Z,13.1
2019-05-26T04:10:04.977Z,12.8
2019-05-26T04:15:01.177Z,13.0
2019-05-26T04:20:01.126Z,12.8
2019-05-26T04:25:06.183Z,13.4
2019-05-26T04:30:06.129Z,13.8
2019-05-26T04:35:01.253Z,13.9
2019-05-26T04:40:01.075Z,14.3
2019-05-26T04:45:01.180Z,14.2
2019-05-26T04:50:01.123Z,14.1
2019-05-26T04:55:01.184Z,14.8
2019-05-26T05:00:01.091Z,15.2
2019-05-26T05:05:01.243Z,15.5
2019-05-26T05:10:01.107Z,16.6
2019-05-26T05:15:01.169Z,17.3
2019-05-26T05:20:01.079Z,18.2
2019-05-26T05:25:01.176Z,18.0
2019-05-26T05:30:01.086Z,18.6
2019-05-26T05:35:01.246Z,18.4
2019-05-26T05:40:01.129Z,18.5
2019-05-26T05:46:01.233Z,17.1
2019-05-26T05:51:01.107Z,17.7
2019-05-26T05:56:01.168Z,19.2
2019-05-26T06:01:01.086Z,19.9
2019-05-26T06:06:06.195Z,20.0
2019-05-26T06:11:15.211Z,20.6
2019-05-26T06:16:01.240Z,21.2
2019-05-26T06:21:01.117Z,19.2
2019-05-26T06:26:01.245Z,19.9
2019-05-26T06:36:01.170Z,19.6
2019-05-26T06:41:01.113Z,18.5
2019-05-26T06:46:01.184Z,18.9
2019-05-26T06:51:01.088Z,17.2
2019-05-26T06:56:01.230Z,17.8
2019-05-26T07:01:01.200Z,18.3
2019-05-26T07:06:01.176Z,20.1
2019-05-26T07:11:01.101Z,21.6
2019-05-26T07:16:01.173Z,24.4
2019-05-26T07:21:01.072Z,25.9
2019-05-26T07:26:01.112Z,27.6
2019-05-26T07:31:01.107Z,29.2
2019-05-26T07:36:01.179Z,30.4
2019-05-26T07:41:01.114Z,31.2
2019-05-26T07:46:01.177Z,32.5
2019-05-26T07:51:01.114Z,34.0
2019-05-26T07:56:01.183Z,34.7
2019-05-26T08:06:01.242Z,34.3
2019-05-26T08:11:01.087Z,34.2
2019-05-26T08:16:01.176Z,33.8
2019-05-26T08:21:01.067Z,34.4
2019-05-26T08:26:01.170Z,33.7
2019-05-26T08:31:01.069Z,34.9
2019-05-26T08:36:01.172Z,36.3
2019-05-26T08:41:01.106Z,37.4
2019-05-26T08:46:01.180Z,37.8
2019-05-26T08:51:06.121Z,40.2
2019-05-26T08:56:01.199Z,39.1
2019-05-26T09:01:01.148Z,35.7
2019-05-26T09:06:01.130Z,32.9
2019-05-26T09:11:06.104Z,30.4
2019-05-26T09:16:06.111Z,26.5
2019-05-26T09:21:01.126Z,24.0
2019-05-26T09:26:06.247Z,23.3
2019-05-26T09:31:06.152Z,22.0
2019-05-26T09:36:01.179Z,19.8
2019-05-26T09:41:01.339Z,18.5
2019-05-26T09:46:01.112Z,17.4
2019-05-26T09:51:01.082Z,15.4
2019-05-26T09:57:01.193Z,14.3
2019-05-26T10:02:06.120Z,13.0
2019-05-26T10:07:01.205Z,12.2
2019-05-26T10:12:01.137Z,11.2
2019-05-26T10:17:06.198Z,10.7
2019-05-26T10:22:06.119Z,10.2
2019-05-26T10:27:01.246Z,10.1
2019-05-26T10:37:01.231Z,9.8
2019-05-26T10:42:01.106Z,9.9
2019-05-26T10:47:01.174Z,9.7
2019-05-26T10:52:06.117Z,9.3
2019-05-26T10:57:01.289Z,8.5
2019-05-26T11:02:01.170Z,7.9
2019-05-26T11:07:01.229Z,6.9
2019-05-26T11:12:06.109Z,6.0
2019-05-26T11:17:01.199Z,5.5
2019-05-26T11:22:01.132Z,5.4
2019-05-26T11:27:08.853Z,5.2
2019-05-26T11:42:12.630Z,5.2
2019-05-26T11:47:01.102Z,5.9
2019-05-26T11:52:01.138Z,6.5
2019-05-26T11:57:01.201Z,7.6
2019-05-26T12:02:01.138Z,9.5
2019-05-26T12:07:06.186Z,11.6
2019-05-26T12:12:01.119Z,12.7
2019-05-26T12:17:01.235Z,14.8
2019-05-26T12:22:01.103Z,16.8
2019-05-26T12:27:01.234Z,17.4
2019-05-26T12:32:01.076Z,20.0
2019-05-26T12:37:01.181Z,21.4
2019-05-26T12:42:01.117Z,21.7
2019-05-26T12:47:01.266Z,21.2
2019-05-26T12:52:01.071Z,21.8
2019-05-26T12:57:01.264Z,20.2
2019-05-26T13:02:01.124Z,20.5
2019-05-26T13:07:01.177Z,21.1
2019-05-26T13:12:01.130Z,20.2
2019-05-26T13:17:01.756Z,18.4
2019-05-26T13:22:01.171Z,16.3
2019-05-26T13:27:06.109Z,14.4
2019-05-26T13:32:06.133Z,11.2
2019-05-26T13:37:01.175Z,9.8
2019-05-26T13:42:01.899Z,9.4
2019-05-26T13:47:01.500Z,8.2
2019-05-26T13:52:06.120Z,6.2
2019-05-26T13:57:06.177Z,5.9
2019-05-26T14:02:06.117Z,5.5
2019-05-26T14:07:06.242Z,4.6
2019-05-26T14:12:06.121Z,6.1
2019-05-26T14:17:06.191Z,7.3
2019-05-26T14:22:01.120Z,8.6
2019-05-26T14:27:01.172Z,10.2
2019-05-26T14:32:01.115Z,13.0
2019-05-26T14:37:01.257Z,16.3
2019-05-26T14:42:01.123Z,22.4
2019-05-26T14:47:01.188Z,26.6
2019-05-26T14:52:01.103Z,31.4
2019-05-26T14:57:01.198Z,34.9
2019-05-26T15:02:01.103Z,36.1
2019-05-26T15:07:01.175Z,34.7
2019-05-26T15:12:01.089Z,35.7
2019-05-26T15:17:01.181Z,34.3
2019-05-26T15:22:02.000Z,33.4
2019-05-26T15:27:01.162Z,33.0
2019-05-26T15:32:02.979Z,33.4
2019-05-26T15:37:01.169Z,32.5
2019-05-26T15:42:01.122Z,33.8
2019-05-26T15:47:01.241Z,35.5
2019-05-26T15:52:01.114Z,38.4
2019-05-26T15:57:01.183Z,41.0
2019-05-26T16:03:06.178Z,43.0
2019-05-26T16:08:06.103Z,44.4
2019-05-26T16:13:06.255Z,45.5
2019-05-26T16:18:06.124Z,43.9
2019-05-26T16:23:08.693Z,41.6
2019-05-26T16:28:06.122Z,40.5
2019-05-26T16:33:01.298Z,38.0
2019-05-26T16:38:01.106Z,34.4
2019-05-26T16:43:01.239Z,30.6
2019-05-26T16:48:01.076Z,28.4
2019-05-26T16:53:01.265Z,24.4
2019-05-26T16:58:01.111Z,21.7
2019-05-26T17:03:01.195Z,18.5
2019-05-26T17:08:01.164Z,17.6
2019-05-26T17:13:01.239Z,15.1
2019-05-26T17:18:01.187Z,14.0
2019-05-26T17:23:01.242Z,13.2
2019-05-26T17:28:01.121Z,12.8
2019-05-26T17:33:01.178Z,12.2
2019-05-26T17:38:01.111Z,11.2
2019-05-26T17:43:01.180Z,10.1
2019-05-26T17:48:06.293Z,9.7
2019-05-26T17:53:06.175Z,9.8
2019-05-26T17:58:01.117Z,9.9
2019-05-26T18:03:01.180Z,10.1
2019-05-26T18:08:01.085Z,10.3
2019-05-26T18:13:01.185Z,10.2
2019-05-26T18:18:01.110Z,10.0
2019-05-26T18:23:01.178Z,9.6
2019-05-26T18:28:01.878Z,10.2
2019-05-26T18:33:01.237Z,11.4
2019-05-26T18:38:01.072Z,12.5
2019-05-26T18:43:01.180Z,14.4
2019-05-26T18:48:03.267Z,15.4
2019-05-26T18:53:01.182Z,16.1
2019-05-26T18:58:01.186Z,16.2
2019-05-26T19:03:01.166Z,17.1
2019-05-26T19:08:01.113Z,18.4
2019-05-26T19:13:01.171Z,20.2
2019-05-26T19:18:01.110Z,22.4
2019-05-26T19:23:02.420Z,25.2
2019-05-26T19:28:01.081Z,27.2
2019-05-26T19:33:01.115Z,26.6
2019-05-26T19:38:01.080Z,26.4
2019-05-26T19:43:01.233Z,25.6
2019-05-26T19:48:01.106Z,23.1
2019-05-26T19:53:01.172Z,21.5
2019-05-26T19:58:01.111Z,20.5
2019-05-26T20:03:01.175Z,17.7
2019-05-26T20:08:01.078Z,14.5
2019-05-26T20:13:01.118Z,12.5
2019-05-26T20:18:01.117Z,9.2
2019-05-26T20:23:01.182Z,6.9
2019-05-26T20:28:01.113Z,6.0
2019-05-26T20:33:01.171Z,5.4
2019-05-26T20:38:01.110Z,5.2
2019-05-26T20:43:01.170Z,4.9
2019-05-26T20:48:01.071Z,4.7
2019-05-26T20:58:01.209Z,4.8
2019-05-26T21:03:01.197Z,4.7
2019-05-26T21:08:01.118Z,4.9
2019-05-26T21:13:01.179Z,5.0
2019-05-26T21:18:01.071Z,6.2
2019-05-26T21:23:01.112Z,7.3
2019-05-26T21:28:01.078Z,8.2
2019-05-26T21:33:01.268Z,9.2
2019-05-26T21:38:01.115Z,10.7
2019-05-26T21:43:01.176Z,11.5
2019-05-26T21:48:01.099Z,12.8
2019-05-26T21:53:01.168Z,16.2
2019-05-26T21:58:01.114Z,18.9
2019-05-26T22:03:01.245Z,21.9
2019-05-26T22:08:01.084Z,25.7
2019-05-26T22:13:06.186Z,28.4
2019-05-26T22:18:01.100Z,28.7
2019-05-26T22:23:01.135Z,30.4
2019-05-26T22:28:01.149Z,31.3
2019-05-26T22:33:01.267Z,30.0
2019-05-26T22:38:01.136Z,29.2
2019-05-26T22:43:01.189Z,30.6
2019-05-26T22:48:01.113Z,30.1
2019-05-26T22:53:01.184Z,31.0
2019-05-26T22:58:01.112Z,31.2
2019-05-26T23:03:01.316Z,31.9
2019-05-26T23:08:02.052Z,30.4
2019-05-26T23:13:01.244Z,29.6
2019-05-26T23:18:01.138Z,27.6
2019-05-26T23:23:06.109Z,26.8
2019-05-26T23:28:06.110Z,25.8
2019-05-26T23:33:01.156Z,25.2
2019-05-26T23:38:01.149Z,25.4
2019-05-26T23:43:01.265Z,24.2
2019-05-26T23:48:01.106Z,24.4
2019-05-26T23:53:01.234Z,23.6
